Terminal Aerodrome Forecast
Issued by NWS

Home | Current Version | Previous Version | Text Only | Print | Product List | Glossary On
Versions: 1 2 3 4 5 6 7 8 9 10 11 12 13 14 15 16 17 18 19 20 21 22 23 24 25 26 27 28 29 30 31 32 33 34 35 36 37 38 39 40 41 42 43 44 45 46 47 48 49 50
332
FTUS41 KCTP 110920 AAB
TAFJST
TAF AMD
KJST 110920Z 1109/1206 27016G26KT 2SM -SN OVC015
      TEMPO 1109/1113 1SM -SN
     FM111600 28016G26KT 3SM -SN OVC015
     FM111800 28015G25KT 4SM -SN OVC025
     FM120000 28008KT P6SM SCT025 BKN035=

USA.gov is the U.S. government's official web portal to all federal, state and local government web resources and services.